Time;durP1;ratioP1;P1;durP2;ratioP2;P2;SDS_P1;SDS_P2;PMS_P1;PMS_P2;Temp;Humidity;BMP_temperature;BMP_pressure;BME280_temperature;BME280_humidity;BME280_pressure;Samples;Min_cycle;Max_cycle;Signal;HPM_P1;HPM_P2
2023/01/25 00:00:09;;;;;;;5.45;3.30;;;;;;;3.77;58.48;96054.94;5064785;28;20090;-76
2023/01/25 00:02:34;;;;;;;5.55;3.10;;;;;;;3.70;58.55;96042.03;5064515;28;20060;-77
2023/01/25 00:05:00;;;;;;;5.35;3.55;;;;;;;3.75;58.64;96043.66;5064286;28;20448;-76
2023/01/25 00:07:25;;;;;;;7.13;3.10;;;;;;;3.78;58.64;96044.84;5064829;28;20036;-78
2023/01/25 00:09:51;;;;;;;6.97;3.00;;;;;;;3.75;58.75;96040.94;5069421;28;20021;-77
2023/01/25 00:12:16;;;;;;;5.70;3.25;;;;;;;3.78;58.79;96045.63;5064138;28;20491;-77
2023/01/25 00:14:41;;;;;;;7.13;3.40;;;;;;;3.75;59.07;96045.59;5064811;28;20027;-76
2023/01/25 00:17:07;;;;;;;4.95;3.20;;;;;;;3.80;58.97;96051.50;5064678;28;20541;-78
2023/01/25 00:19:32;;;;;;;6.03;3.60;;;;;;;3.80;58.55;96056.16;5064574;28;20029;-78
2023/01/25 00:21:57;;;;;;;4.22;3.05;;;;;;;3.73;58.92;96049.47;5064346;28;20533;-77
2023/01/25 00:24:24;;;;;;;5.45;3.25;;;;;;;3.66;58.75;96052.06;5064332;28;20032;-76
2023/01/25 00:26:49;;;;;;;4.50;3.10;;;;;;;3.69;58.63;96045.13;5064166;28;20029;-77
2023/01/25 00:29:15;;;;;;;5.10;2.85;;;;;;;3.64;58.78;96057.09;5066182;28;20411;-78
2023/01/25 00:32:00;;;;;;;10.45;4.60;;;;;;;3.65;58.68;96049.72;5066835;28;20087;-76
2023/01/25 00:34:25;;;;;;;6.72;3.92;;;;;;;3.66;58.30;96049.34;5067390;28;20177;-77
2023/01/25 00:36:54;;;;;;;5.10;2.95;;;;;;;3.68;57.91;96047.06;5068283;28;20535;-78
2023/01/25 00:39:19;;;;;;;6.22;3.15;;;;;;;3.66;58.12;96051.28;5068652;28;20029;-77
2023/01/25 00:41:45;;;;;;;7.78;3.78;;;;;;;3.65;58.19;96055.94;5068349;28;20028;-77
2023/01/25 00:44:10;;;;;;;6.70;2.90;;;;;;;3.68;58.04;96057.16;5067842;28;20032;-78
2023/01/25 00:46:36;;;;;;;5.53;3.00;;;;;;;3.69;57.86;96056.78;5068849;28;20032;-77
2023/01/25 00:49:01;;;;;;;5.05;3.13;;;;;;;3.72;57.65;96052.53;5067774;28;20025;-78
2023/01/25 00:51:27;;;;;;;5.63;2.70;;;;;;;3.68;57.71;96049.00;5068447;28;20502;-76
2023/01/25 00:53:52;;;;;;;5.18;3.03;;;;;;;3.67;57.56;96050.13;5068296;28;20452;-78
2023/01/25 00:56:18;;;;;;;4.47;2.78;;;;;;;3.65;57.36;96052.44;5077135;28;20054;-77
2023/01/25 00:58:43;;;;;;;5.05;3.20;;;;;;;3.56;57.67;96052.69;5081915;28;20117;-77
2023/01/25 01:01:09;;;;;;;3.90;2.70;;;;;;;3.52;57.78;96051.84;5068468;28;20429;-78
2023/01/25 01:03:34;;;;;;;5.00;2.83;;;;;;;3.56;57.82;96049.19;5069688;28;20035;-78
2023/01/25 01:06:06;;;;;;;6.03;3.05;;;;;;;3.61;57.70;96054.31;5070443;28;20572;-77
2023/01/25 01:08:37;;;;;;;4.13;2.50;;;;;;;3.61;57.41;96048.88;5068117;28;20111;-77
2023/01/25 01:11:05;;;;;;;4.22;2.72;;;;;;;3.61;57.40;96052.41;5067411;28;20032;-76
2023/01/25 01:13:31;;;;;;;6.28;3.17;;;;;;;3.65;57.19;96049.72;5067984;28;20112;-78
2023/01/25 01:16:01;;;;;;;5.47;3.50;;;;;;;3.61;57.12;96049.69;5067262;28;20084;-77
2023/01/25 01:18:27;;;;;;;4.97;2.78;;;;;;;3.59;57.14;96045.75;5066484;28;20127;-77
2023/01/25 01:20:53;;;;;;;6.15;3.13;;;;;;;3.56;57.21;96046.47;5068158;28;20107;-77
2023/01/25 01:23:19;;;;;;;6.75;3.20;;;;;;;3.51;57.15;96038.63;5066037;28;20035;-77
2023/01/25 01:25:44;;;;;;;6.47;3.55;;;;;;;3.48;57.05;96037.41;5067708;28;20028;-77
2023/01/25 01:28:10;;;;;;;4.63;3.30;;;;;;;3.52;57.09;96038.25;5066979;28;20491;-78
2023/01/25 01:30:36;;;;;;;5.00;2.70;;;;;;;3.51;56.96;96023.09;5067539;28;20116;-75
2023/01/25 01:33:01;;;;;;;5.40;2.67;;;;;;;3.47;57.03;96028.47;5065638;28;20117;-77
2023/01/25 01:35:30;;;;;;;4.78;2.50;;;;;;;3.46;57.04;96029.63;5067848;28;20028;-78
2023/01/25 01:37:55;;;;;;;5.18;2.53;;;;;;;3.49;57.34;96030.03;5067067;28;20512;-77
2023/01/25 01:40:21;;;;;;;5.15;2.58;;;;;;;3.49;57.17;96030.03;5066391;28;20029;-77
2023/01/25 01:43:01;;;;;;;4.28;2.20;;;;;;;3.56;57.15;96027.44;5067247;28;20028;-76
2023/01/25 01:45:47;;;;;;;4.80;2.60;;;;;;;3.54;56.74;96027.78;5066772;28;20031;-78
2023/01/25 01:48:16;;;;;;;5.75;3.05;;;;;;;3.47;57.17;96028.47;5066980;28;20392;-76
2023/01/25 01:50:42;;;;;;;5.18;2.88;;;;;;;3.49;57.18;96027.31;5065388;28;20021;-76
2023/01/25 01:53:07;;;;;;;5.05;2.85;;;;;;;3.44;57.47;96023.78;5066510;28;20078;-77
2023/01/25 01:55:33;;;;;;;5.50;3.25;;;;;;;3.44;57.67;96031.13;5065896;28;20033;-78
2023/01/25 01:57:58;;;;;;;5.97;2.88;;;;;;;3.24;57.74;96005.97;5066697;28;20028;-76
2023/01/25 02:00:27;;;;;;;6.15;2.47;;;;;;;3.44;57.70;96026.50;5071539;28;20106;-78
2023/01/25 02:02:53;;;;;;;4.60;2.40;;;;;;;3.42;57.61;96028.78;5067557;28;20024;-76
2023/01/25 02:05:24;;;;;;;4.47;2.30;;;;;;;3.46;57.86;96026.13;5067217;28;20513;-77
2023/01/25 02:07:50;;;;;;;4.35;2.45;;;;;;;3.49;58.07;96033.53;5067042;28;20025;-76
2023/01/25 02:10:16;;;;;;;4.13;2.50;;;;;;;3.47;58.09;96028.47;5067255;28;20064;-76
2023/01/25 02:12:42;;;;;;;4.20;2.25;;;;;;;3.42;58.27;96026.06;5032555;28;20032;-75
2023/01/25 02:15:08;;;;;;;3.85;2.30;;;;;;;3.44;58.24;96029.22;5064760;28;20020;-76
2023/01/25 02:17:36;;;;;;;4.55;2.40;;;;;;;3.40;58.01;96020.22;5066888;28;20086;-77
2023/01/25 02:20:37;;;;;;;6.03;3.03;;;;;;;3.41;58.03;96029.94;5064965;28;20107;-77
2023/01/25 02:23:30;;;;;;;4.95;2.63;;;;;;;3.39;57.84;96026.00;5065012;28;20071;-77
2023/01/25 02:25:57;;;;;;;4.15;2.25;;;;;;;3.34;58.06;96021.66;5066823;28;20039;-79
2023/01/25 02:28:26;;;;;;;3.92;2.33;;;;;;;3.31;58.06;96027.81;5065983;28;20071;-77
2023/01/25 02:30:52;;;;;;;3.72;2.30;;;;;;;3.26;58.21;96022.69;5064658;28;20032;-77
2023/01/25 02:33:18;;;;;;;3.95;2.40;;;;;;;3.28;58.23;96035.94;5065959;28;20032;-78
2023/01/25 02:35:46;;;;;;;4.55;2.40;;;;;;;3.27;58.01;96024.28;5066747;28;20473;-78
2023/01/25 02:38:13;;;;;;;4.38;2.22;;;;;;;3.24;58.23;96022.25;5065498;28;20025;-78
2023/01/25 02:40:48;;;;;;;5.55;3.03;;;;;;;3.18;58.15;96016.34;5065373;28;20025;-78
2023/01/25 02:43:15;;;;;;;4.22;2.40;;;;;;;3.22;58.02;96015.63;5065214;28;20109;-78
2023/01/25 02:45:44;;;;;;;4.20;2.45;;;;;;;3.21;57.89;96014.81;5064399;28;20411;-78
2023/01/25 02:48:09;;;;;;;5.25;2.35;;;;;;;3.25;57.76;96012.97;5064605;28;20112;-78
2023/01/25 02:50:34;;;;;;;3.95;2.22;;;;;;;3.20;57.96;96011.31;5065781;28;20115;-77
2023/01/25 02:53:00;;;;;;;4.90;2.60;;;;;;;3.18;57.95;96008.19;5064741;28;20112;-77
2023/01/25 02:55:25;;;;;;;4.15;2.53;;;;;;;3.20;57.98;96016.75;5071391;28;20036;-76
2023/01/25 02:57:51;;;;;;;4.97;2.90;;;;;;;3.21;58.18;96017.53;5066571;28;20080;-77
2023/01/25 03:00:16;;;;;;;4.88;3.03;;;;;;;3.14;58.34;96012.78;5065980;28;20025;-78
2023/01/25 03:02:41;;;;;;;4.90;2.60;;;;;;;3.26;58.27;96019.19;5064612;28;20028;-78
2023/01/25 03:05:07;;;;;;;3.75;2.40;;;;;;;3.25;58.00;96014.91;5064240;28;20039;-78
2023/01/25 03:07:32;;;;;;;3.63;2.30;;;;;;;3.24;58.27;96013.34;5064129;28;20048;-76
2023/01/25 03:09:58;;;;;;;4.45;2.30;;;;;;;3.22;58.31;96018.34;5065539;28;20033;-77
2023/01/25 03:12:23;;;;;;;3.63;2.15;;;;;;;3.28;58.03;96020.41;5065625;28;20107;-76
2023/01/25 03:14:49;;;;;;;4.22;2.42;;;;;;;3.27;58.30;96016.13;5065241;28;20510;-77
2023/01/25 03:17:14;;;;;;;3.65;2.25;;;;;;;3.29;58.38;96013.81;5064980;28;20111;-78
2023/01/25 03:19:39;;;;;;;5.25;2.38;;;;;;;3.33;58.31;96020.09;5065291;28;20479;-78
2023/01/25 03:22:05;;;;;;;3.50;2.28;;;;;;;3.36;58.05;96019.34;5065399;28;20032;-76
2023/01/25 03:24:31;;;;;;;4.05;2.17;;;;;;;3.43;57.79;96018.69;5071484;28;20028;-77
2023/01/25 03:27:13;;;;;;;3.05;2.35;;;;;;;3.40;57.98;96014.78;5069010;28;20087;-78
2023/01/25 03:29:40;;;;;;;6.25;3.90;;;;;;;3.39;57.95;96018.66;5065943;28;20051;-78
2023/01/25 03:32:06;;;;;;;11.13;5.43;;;;;;;3.37;57.87;96015.47;5064730;28;20085;-77
2023/01/25 03:34:31;;;;;;;9.63;5.97;;;;;;;3.37;57.88;96011.97;5064610;28;20103;-76
2023/01/25 03:36:56;;;;;;;10.18;5.82;;;;;;;3.37;57.69;96015.47;5064708;28;20017;-78
2023/01/25 03:39:22;;;;;;;8.52;4.97;;;;;;;3.36;57.56;96015.84;5064752;28;20099;-78
2023/01/25 03:41:47;;;;;;;6.38;4.03;;;;;;;3.37;57.59;96014.69;5063500;28;20024;-76
2023/01/25 03:44:13;;;;;;;5.68;3.28;;;;;;;3.36;57.60;96013.13;5064719;28;20027;-77
2023/01/25 03:46:39;;;;;;;6.80;3.60;;;;;;;3.33;57.86;96011.94;5065280;28;20028;-77
2023/01/25 03:49:05;;;;;;;6.55;3.67;;;;;;;3.33;57.89;96013.88;5066527;28;20025;-78
2023/01/25 03:51:30;;;;;;;5.28;3.00;;;;;;;3.38;57.47;96010.84;5067978;28;20566;-77
2023/01/25 03:53:56;;;;;;;3.80;2.50;;;;;;;3.38;57.28;96006.22;5065561;28;20119;-77
2023/01/25 03:56:21;;;;;;;4.70;2.70;;;;;;;3.39;57.14;96004.28;5065249;28;20044;-79
2023/01/25 03:58:46;;;;;;;5.63;3.03;;;;;;;3.43;56.94;96005.88;5046903;28;20035;-77
2023/01/25 04:01:12;;;;;;;4.25;2.35;;;;;;;3.46;56.63;96004.38;5064861;28;20046;-79
2023/01/25 04:03:38;;;;;;;4.35;2.85;;;;;;;3.42;56.45;96000.81;5064469;28;20035;-79
2023/01/25 04:06:04;;;;;;;3.83;2.85;;;;;;;3.32;56.93;95987.81;5064831;28;20029;-77
2023/01/25 04:08:30;;;;;;;5.15;3.33;;;;;;;3.36;56.96;95989.47;5063233;28;20414;-77
2023/01/25 04:11:04;;;;;;;4.85;2.83;;;;;;;3.37;56.70;95992.97;5063260;28;20032;-78
2023/01/25 04:13:30;;;;;;;5.25;2.92;;;;;;;3.41;56.87;95996.53;5064176;28;20588;-78
2023/01/25 04:15:55;;;;;;;5.07;3.10;;;;;;;3.41;56.61;95993.81;5064379;28;20184;-79
2023/01/25 04:18:21;;;;;;;5.47;3.00;;;;;;;3.40;56.60;95998.47;5063994;28;20044;-77
2023/01/25 04:20:52;;;;;;;5.00;3.25;;;;;;;3.39;56.66;95990.69;5064383;28;20049;-77
2023/01/25 04:23:18;;;;;;;5.07;3.10;;;;;;;3.37;56.82;95995.69;5062600;28;20476;-77
2023/01/25 04:26:11;;;;;;;6.65;3.03;;;;;;;3.38;56.80;95995.34;5064246;28;20509;-77
2023/01/25 04:28:36;;;;;;;5.50;3.00;;;;;;;3.36;57.04;95997.63;5064593;28;20078;-76
2023/01/25 04:31:05;;;;;;;5.40;3.33;;;;;;;3.34;57.17;95996.41;5064319;28;20025;-76
2023/01/25 04:33:30;;;;;;;3.97;2.65;;;;;;;3.36;56.84;95992.19;5063207;28;20017;-78
2023/01/25 04:35:56;;;;;;;5.38;3.22;;;;;;;3.36;56.68;95992.19;5064358;28;20051;-78
2023/01/25 04:38:22;;;;;;;3.80;2.40;;;;;;;3.38;56.42;96000.78;5064055;28;20482;-77
2023/01/25 04:40:47;;;;;;;3.60;1.98;;;;;;;3.41;56.39;96005.47;5062977;28;20025;-78
2023/01/25 04:43:14;;;;;;;3.33;2.05;;;;;;;3.40;56.29;96003.13;5062921;28;20032;-76
2023/01/25 04:45:39;;;;;;;3.38;2.15;;;;;;;3.35;56.69;96011.56;5070667;28;20017;-75
2023/01/25 04:48:09;;;;;;;3.85;2.35;;;;;;;3.42;56.62;96017.13;5064580;28;20063;-75
2023/01/25 04:50:39;;;;;;;3.78;2.60;;;;;;;3.42;56.34;96006.25;5064710;28;20024;-76
2023/01/25 04:53:04;;;;;;;4.45;3.00;;;;;;;3.43;56.61;96010.53;5064461;28;20031;-76
2023/01/25 04:55:30;;;;;;;3.92;2.72;;;;;;;3.43;56.45;96005.88;5063008;28;20020;-76
2023/01/25 04:57:55;;;;;;;3.70;2.60;;;;;;;3.40;56.87;96003.91;5064281;28;20043;-77
2023/01/25 05:00:21;;;;;;;4.50;2.72;;;;;;;3.33;56.93;96001.06;5063687;28;20479;-77
2023/01/25 05:02:46;;;;;;;3.83;2.20;;;;;;;3.36;57.06;96002.25;5062342;28;20119;-77
2023/01/25 05:05:12;;;;;;;4.22;2.42;;;;;;;3.35;57.27;96004.19;5060656;28;20112;-77
2023/01/25 05:07:38;;;;;;;4.85;3.30;;;;;;;3.42;56.92;96011.69;5063108;28;20112;-78
2023/01/25 05:10:04;;;;;;;5.57;3.40;;;;;;;3.46;56.67;96010.59;5062353;28;20029;-76
2023/01/25 05:12:29;;;;;;;6.18;3.72;;;;;;;3.47;57.16;96005.94;5058546;28;20028;-77
2023/01/25 05:14:55;;;;;;;6.43;3.38;;;;;;;3.43;57.48;95997.72;5062631;28;20043;-76
2023/01/25 05:17:20;;;;;;;11.38;5.13;;;;;;;3.43;57.51;96000.44;5065030;28;20049;-79
2023/01/25 05:19:46;;;;;;;8.52;4.65;;;;;;;3.51;57.19;95993.19;5066678;28;20099;-77
2023/01/25 05:22:16;;;;;;;7.20;4.50;;;;;;;3.53;57.29;95998.25;5064986;28;20575;-78
2023/01/25 05:24:43;;;;;;;9.88;4.80;;;;;;;3.50;57.64;95993.53;5067277;28;20032;-78
2023/01/25 05:27:10;;;;;;;7.63;5.00;;;;;;;3.51;57.72;95993.19;5066962;28;20028;-77
2023/01/25 05:29:40;;;;;;;7.95;4.60;;;;;;;3.57;57.92;95993.66;5067472;28;20972;-77
2023/01/25 05:32:09;;;;;;;7.95;4.72;;;;;;;3.61;57.70;95991.75;5067040;28;20070;-76
2023/01/25 05:34:35;;;;;;;7.75;4.13;;;;;;;3.59;58.25;95991.34;5065873;28;20039;-78
2023/01/25 05:37:01;;;;;;;7.90;3.88;;;;;;;3.57;58.12;95989.00;5067473;28;20028;-77
2023/01/25 05:39:26;;;;;;;9.23;4.40;;;;;;;3.54;57.74;96002.53;5068729;28;20044;-76
2023/01/25 05:41:52;;;;;;;7.35;3.88;;;;;;;3.46;57.89;96001.66;5069680;28;20024;-78
2023/01/25 05:44:18;;;;;;;8.23;3.78;;;;;;;3.39;58.02;95996.13;5067531;28;20094;-81
2023/01/25 05:46:43;;;;;;;6.53;3.42;;;;;;;3.39;58.21;96007.78;5067727;28;20013;-77
2023/01/25 05:49:09;;;;;;;10.00;4.65;;;;;;;3.35;58.37;96001.47;5066743;28;20036;-77
2023/01/25 05:51:35;;;;;;;37.25;16.05;;;;;;;3.38;58.58;96008.94;5068877;28;20478;-76
2023/01/25 05:54:01;;;;;;;26.67;13.48;;;;;;;3.34;58.91;96016.22;5069561;28;20043;-77
2023/01/25 05:56:27;;;;;;;18.92;9.10;;;;;;;3.35;58.88;96011.56;5066766;28;20021;-78
2023/01/25 05:58:56;;;;;;;13.48;6.72;;;;;;;3.35;59.32;96003.41;5067071;28;20402;-77
2023/01/25 06:01:22;;;;;;;7.35;5.50;;;;;;;3.35;59.55;96011.56;5065875;28;20054;-76
2023/01/25 06:03:47;;;;;;;10.68;5.72;;;;;;;3.27;60.13;96012.59;5067026;28;20116;-77
2023/01/25 06:06:13;;;;;;;11.30;6.22;;;;;;;3.32;59.98;96012.28;5066438;28;20450;-78
2023/01/25 06:08:38;;;;;;;8.15;5.15;;;;;;;3.27;60.05;96012.59;5066737;28;20039;-78
2023/01/25 06:11:11;;;;;;;7.65;5.22;;;;;;;3.27;59.68;96013.41;5066630;28;20093;-77
2023/01/25 06:13:37;;;;;;;8.15;5.82;;;;;;;3.31;59.88;96014.22;5066641;28;20036;-78
2023/01/25 06:16:03;;;;;;;12.20;5.95;;;;;;;3.23;59.83;96012.56;5066734;28;20028;-78
2023/01/25 06:18:30;;;;;;;9.48;6.00;;;;;;;3.29;59.93;96024.69;5065982;28;20056;-77
2023/01/25 06:20:56;;;;;;;11.70;6.03;;;;;;;3.25;60.11;96020.34;5065373;28;20412;-77
2023/01/25 06:23:21;;;;;;;9.18;6.03;;;;;;;3.21;60.16;96022.97;5066208;28;20024;-78
2023/01/25 06:25:47;;;;;;;10.57;6.18;;;;;;;3.19;60.12;96015.19;5066632;28;20028;-78
2023/01/25 06:28:12;;;;;;;10.10;6.35;;;;;;;3.20;59.99;96021.41;5065809;28;20407;-76
2023/01/25 06:30:38;;;;;;;8.65;5.20;;;;;;;3.20;60.16;96021.41;5066193;28;20458;-79
2023/01/25 06:33:03;;;;;;;8.30;5.30;;;;;;;3.23;59.89;96009.06;5066354;28;20032;-76
2023/01/25 06:35:31;;;;;;;11.02;6.13;;;;;;;3.19;59.93;96007.03;5071797;28;20143;-77
2023/01/25 06:37:57;;;;;;;12.23;7.28;;;;;;;3.19;60.12;96012.47;5067179;28;20039;-77
2023/01/25 06:40:23;;;;;;;14.07;6.88;;;;;;;3.21;59.88;96012.09;5066402;28;20432;-77
2023/01/25 06:42:48;;;;;;;11.27;6.43;;;;;;;3.25;59.81;96012.97;5066667;28;20102;-78
2023/01/25 06:45:14;;;;;;;8.52;6.20;;;;;;;3.31;59.94;96005.28;5065963;28;20141;-78
2023/01/25 06:47:39;;;;;;;11.95;6.63;;;;;;;3.36;59.70;96007.69;5066280;28;20024;-77
2023/01/25 06:50:05;;;;;;;12.88;6.72;;;;;;;3.35;59.69;96009.63;5064622;28;20487;-77
2023/01/25 06:52:35;;;;;;;14.80;7.15;;;;;;;3.40;59.85;96000.41;5065692;28;20024;-76
2023/01/25 06:55:01;;;;;;;12.50;7.18;;;;;;;3.42;59.54;96015.19;5065608;28;20534;-77
2023/01/25 06:57:28;;;;;;;16.92;8.15;;;;;;;3.39;59.64;96013.22;5065715;28;20219;-76
2023/01/25 06:59:54;;;;;;;11.75;8.00;;;;;;;3.42;60.05;96017.91;5065917;28;20429;-77
2023/01/25 07:02:20;;;;;;;14.05;7.38;;;;;;;3.51;60.11;96011.44;5065866;28;20017;-77
2023/01/25 07:04:45;;;;;;;15.13;8.30;;;;;;;3.40;60.38;95990.31;5065677;28;20502;-78
2023/01/25 07:07:11;;;;;;;10.35;6.57;;;;;;;3.55;60.29;96015.75;5065200;28;20039;-76
2023/01/25 07:09:36;;;;;;;10.23;6.68;;;;;;;3.49;60.33;96013.72;5065699;28;20028;-78
2023/01/25 07:12:03;;;;;;;11.40;7.10;;;;;;;3.49;60.94;96008.28;5065770;28;20025;-79
2023/01/25 07:14:29;;;;;;;12.52;7.72;;;;;;;3.48;60.32;95999.34;5065114;28;20035;-77
2023/01/25 07:16:55;;;;;;;11.43;7.97;;;;;;;3.46;60.36;96009.81;5065435;28;20045;-77
2023/01/25 07:19:20;;;;;;;13.35;7.88;;;;;;;3.46;60.37;96004.38;5064796;28;20071;-76
2023/01/25 07:21:46;;;;;;;15.20;8.10;;;;;;;3.53;60.51;96009.13;5064187;28;20060;-77
2023/01/25 07:24:14;;;;;;;13.63;8.50;;;;;;;3.55;60.43;96013.03;5063317;28;20025;-77
2023/01/25 07:26:39;;;;;;;11.10;8.43;;;;;;;3.56;60.60;96005.69;5063731;28;20020;-77
2023/01/25 07:29:05;;;;;;;14.10;8.52;;;;;;;3.50;60.95;96013.38;5065321;28;20032;-79
2023/01/25 07:31:31;;;;;;;10.88;7.80;;;;;;;3.61;60.91;96018.97;5069327;28;20039;-77
2023/01/25 07:33:57;;;;;;;11.50;8.50;;;;;;;3.64;60.70;96026.41;5065815;28;20521;-77
2023/01/25 07:36:23;;;;;;;16.13;8.75;;;;;;;3.61;60.79;96019.75;5064810;28;20070;-78
2023/01/25 07:38:52;;;;;;;15.75;9.75;;;;;;;3.62;60.75;96028.72;5064854;28;20036;-78
2023/01/25 07:41:17;;;;;;;16.83;9.25;;;;;;;3.64;60.87;96026.41;5064317;28;20075;-78
2023/01/25 07:43:43;;;;;;;15.95;10.07;;;;;;;3.64;60.77;96029.91;5064886;28;20028;-77
2023/01/25 07:46:10;;;;;;;16.13;9.90;;;;;;;3.68;60.77;96030.75;5064873;28;20181;-78
2023/01/25 07:48:35;;;;;;;17.73;9.95;;;;;;;3.75;60.40;96035.50;5063250;28;20125;-77
2023/01/25 07:51:21;;;;;;;13.57;8.32;;;;;;;3.76;60.34;96037.06;5063808;28;20048;-76
2023/01/25 07:53:48;;;;;;;11.32;7.75;;;;;;;3.81;59.91;96033.25;5065003;28;20353;-77
2023/01/25 07:56:14;;;;;;;10.23;6.80;;;;;;;3.84;59.62;96027.06;5063434;28;20031;-77
2023/01/25 07:58:39;;;;;;;11.60;7.57;;;;;;;3.83;59.67;96033.66;5064401;28;20028;-78
2023/01/25 08:01:12;;;;;;;10.98;6.78;;;;;;;3.85;59.56;96032.16;5064584;28;20052;-78
2023/01/25 08:03:38;;;;;;;12.65;6.65;;;;;;;3.77;59.28;96027.75;5064582;28;20110;-76
2023/01/25 08:06:06;;;;;;;10.48;7.25;;;;;;;3.73;59.50;96027.72;5063873;28;20061;-78
2023/01/25 08:08:34;;;;;;;10.00;6.43;;;;;;;3.73;59.57;96024.22;5064726;28;20587;-78
2023/01/25 08:11:12;;;;;;;9.05;5.60;;;;;;;3.69;58.92;96020.66;5063337;28;20062;-77
2023/01/25 08:13:38;;;;;;;8.13;5.50;;;;;;;3.59;59.10;96032.16;5065088;28;20513;-77
2023/01/25 08:16:04;;;;;;;8.15;5.35;;;;;;;3.54;59.11;96011.47;5065028;28;20021;-78
2023/01/25 08:18:29;;;;;;;9.25;5.68;;;;;;;3.47;59.38;96011.38;5064595;28;20052;-78
2023/01/25 08:20:58;;;;;;;9.27;5.53;;;;;;;3.39;59.55;96017.88;5071119;28;20028;-78
2023/01/25 08:23:24;;;;;;;8.27;5.15;;;;;;;3.36;60.06;96021.28;5067539;28;20040;-78
2023/01/25 08:25:49;;;;;;;8.98;5.82;;;;;;;3.27;59.98;96012.59;5068019;28;20029;-78
2023/01/25 08:28:15;;;;;;;8.68;5.47;;;;;;;3.16;60.25;96024.09;5070618;28;20054;-77
2023/01/25 08:30:40;;;;;;;7.28;4.88;;;;;;;3.06;60.35;96024.69;5065132;28;20031;-78
2023/01/25 08:33:06;;;;;;;7.13;4.85;;;;;;;2.85;60.73;96027.00;5064515;28;20025;-77
2023/01/25 08:35:31;;;;;;;8.20;4.85;;;;;;;2.66;61.59;96025.13;5063009;28;20598;-76
2023/01/25 08:37:56;;;;;;;10.65;4.97;;;;;;;2.64;61.52;96011.13;5064079;28;20024;-76
2023/01/25 08:40:22;;;;;;;7.65;5.07;;;;;;;2.65;61.64;96018.91;5064225;28;20106;-79
2023/01/25 08:42:47;;;;;;;7.45;5.00;;;;;;;2.58;61.75;96026.09;5063105;28;20036;-78
2023/01/25 08:45:13;;;;;;;7.07;5.07;;;;;;;2.51;62.03;96015.91;5064508;28;20120;-76
2023/01/25 08:47:38;;;;;;;10.77;8.13;;;;;;;2.55;62.05;96008.63;5064808;28;20030;-78
2023/01/25 08:50:04;;;;;;;9.48;7.40;;;;;;;2.66;62.09;96019.69;5063871;28;20029;-78
2023/01/25 08:52:29;;;;;;;10.98;7.72;;;;;;;2.76;61.85;96018.31;5068711;28;20052;-78
2023/01/25 08:54:55;;;;;;;10.50;6.88;;;;;;;2.89;61.39;96017.00;5068591;28;20471;-78
2023/01/25 08:57:20;;;;;;;7.85;5.93;;;;;;;3.00;61.11;96017.19;5068434;28;20103;-78
2023/01/25 08:59:46;;;;;;;7.68;5.63;;;;;;;3.10;60.96;96022.03;5066720;28;20777;-78
2023/01/25 09:02:12;;;;;;;8.82;5.18;;;;;;;3.16;60.39;96010.50;5068405;28;20033;-77
2023/01/25 09:04:37;;;;;;;7.63;4.95;;;;;;;3.15;60.29;96002.69;5067988;28;20063;-76
2023/01/25 09:07:03;;;;;;;7.65;5.43;;;;;;;3.11;60.32;96015.44;5068098;28;20413;-77
2023/01/25 09:09:29;;;;;;;7.75;5.53;;;;;;;3.15;60.40;96011.66;5066854;28;20033;-78
2023/01/25 09:11:55;;;;;;;10.07;6.50;;;;;;;3.20;60.38;96007.81;5067744;28;20471;-78
2023/01/25 09:14:21;;;;;;;8.73;5.90;;;;;;;3.13;60.24;96003.06;5068481;28;20063;-78
2023/01/25 09:16:46;;;;;;;8.90;6.70;;;;;;;3.25;60.10;96009.47;5067346;28;20060;-77
2023/01/25 09:19:12;;;;;;;9.02;6.05;;;;;;;3.17;60.20;96003.91;5067994;28;20105;-76
2023/01/25 09:21:38;;;;;;;8.77;5.82;;;;;;;3.18;60.43;96012.84;5070478;28;20028;-76
2023/01/25 09:24:05;;;;;;;10.13;6.72;;;;;;;3.10;60.58;96009.25;5068824;28;20024;-77
2023/01/25 09:26:32;;;;;;;10.80;6.55;;;;;;;3.05;60.97;96004.09;5066704;28;20183;-77
2023/01/25 09:28:58;;;;;;;10.27;6.75;;;;;;;3.05;61.16;95993.22;5067866;28;20552;-76
2023/01/25 09:31:23;;;;;;;8.52;6.20;;;;;;;3.07;61.42;95990.94;5068286;28;20028;-78
2023/01/25 09:33:50;;;;;;;8.65;6.30;;;;;;;3.06;61.30;95983.94;5067046;28;20032;-78
2023/01/25 09:36:15;;;;;;;9.02;6.50;;;;;;;3.08;61.35;95992.50;5067414;28;20012;-77
2023/01/25 09:38:41;;;;;;;9.35;6.10;;;;;;;3.13;61.61;95985.97;5067491;28;20159;-77
2023/01/25 09:41:22;;;;;;;8.60;5.88;;;;;;;3.17;61.41;95984.13;5067394;28;20044;-77
2023/01/25 09:43:59;;;;;;;10.32;7.20;;;;;;;3.23;61.49;95976.44;5067303;28;20028;-78
2023/01/25 09:46:51;;;;;;;9.52;7.35;;;;;;;3.25;61.71;95966.75;5066608;28;20032;-78
2023/01/25 09:49:29;;;;;;;12.18;6.53;;;;;;;3.34;61.77;95964.59;5066831;28;20036;-77
2023/01/25 09:52:16;;;;;;;8.00;6.53;;;;;;;3.36;61.76;95954.13;5067155;28;20086;-78
2023/01/25 09:54:44;;;;;;;8.75;6.53;;;;;;;3.46;61.89;95958.94;5067126;28;20032;-78
2023/01/25 09:57:25;;;;;;;8.75;6.90;;;;;;;3.56;61.15;95951.31;5065909;28;20445;-77
2023/01/25 09:59:51;;;;;;;10.13;6.78;;;;;;;3.47;61.41;95946.91;5066461;28;20021;-78
2023/01/25 10:02:32;;;;;;;7.88;5.68;;;;;;;3.44;61.62;95946.84;5064796;28;20028;-79
2023/01/25 10:05:06;;;;;;;10.20;6.50;;;;;;;3.37;62.09;95942.09;5066863;28;20407;-77
2023/01/25 10:08:07;;;;;;;9.73;6.32;;;;;;;3.49;61.92;95940.31;5049043;28;20085;-77
2023/01/25 10:10:37;;;;;;;9.85;6.95;;;;;;;3.62;61.59;95928.09;5066175;28;20041;-78
2023/01/25 10:13:02;;;;;;;9.75;6.72;;;;;;;3.73;61.92;95932.53;5064631;28;20399;-78
2023/01/25 10:15:31;;;;;;;10.05;6.90;;;;;;;3.81;61.64;95925.22;5066917;28;20089;-78
2023/01/25 10:18:36;;;;;;;9.30;6.28;;;;;;;3.89;61.13;95920.66;5070642;28;20056;-76
2023/01/25 10:21:03;;;;;;;;;;;;;;;3.90;59.85;95911.34;5065393;28;20025;-76
2023/01/25 10:23:28;;;;;;;8.63;5.95;;;;;;;3.80;59.72;95904.63;5066838;28;19912;-77
2023/01/25 10:25:59;;;;;;;10.48;6.38;;;;;;;3.78;60.15;95906.91;5066343;28;20463;-78
2023/01/25 10:28:40;;;;;;;11.45;7.40;;;;;;;3.79;59.85;95910.44;5064913;28;20409;-76
2023/01/25 10:31:18;;;;;;;7.78;6.68;;;;;;;3.74;59.63;95900.66;5064856;28;20039;-77
2023/01/25 10:33:45;;;;;;;8.07;5.15;;;;;;;3.78;59.05;95900.69;5064487;28;20491;-79
2023/01/25 10:36:16;;;;;;;5.07;4.05;;;;;;;3.83;58.20;95894.94;5066858;28;20170;-77
2023/01/25 10:38:45;;;;;;;8.13;4.85;;;;;;;3.67;57.63;95886.97;5065685;28;20033;-77
2023/01/25 10:41:16;;;;;;;7.05;4.60;;;;;;;3.64;58.40;95883.06;5066022;28;20546;-76
2023/01/25 10:43:41;;;;;;;8.40;6.25;;;;;;;3.75;58.64;95885.91;5065613;28;20036;-76
2023/01/25 10:46:22;;;;;;;8.32;5.40;;;;;;;3.93;58.19;95881.47;5066394;28;20029;-78
2023/01/25 10:48:48;;;;;;;6.07;4.55;;;;;;;3.90;57.48;95873.25;5070306;28;20028;-77
2023/01/25 10:51:34;;;;;;;6.93;4.45;;;;;;;3.88;56.50;95870.13;5068526;28;20029;-77
2023/01/25 10:54:04;;;;;;;7.00;5.07;;;;;;;3.84;57.00;95872.00;5066953;28;20027;-76
2023/01/25 10:56:32;;;;;;;7.70;4.93;;;;;;;3.87;57.09;95866.63;5064692;28;20048;-76
2023/01/25 10:59:13;;;;;;;7.05;4.85;;;;;;;3.80;57.32;95865.78;5066081;28;20040;-77
2023/01/25 11:01:38;;;;;;;7.28;4.85;;;;;;;3.76;57.43;95860.28;5065729;28;20039;-77
2023/01/25 11:04:22;;;;;;;7.65;5.22;;;;;;;3.86;57.73;95865.06;5063934;28;20028;-78
2023/01/25 11:06:50;;;;;;;8.43;5.60;;;;;;;3.96;57.43;95853.53;5066004;28;20031;-76
2023/01/25 11:09:21;;;;;;;6.47;5.03;;;;;;;4.06;57.08;95857.50;5065382;28;20075;-77
2023/01/25 11:12:03;;;;;;;7.50;4.97;;;;;;;3.97;56.00;95852.38;5066310;28;20051;-77
2023/01/25 11:14:30;;;;;;;7.05;4.85;;;;;;;4.08;55.87;95855.22;5068497;28;20037;-77
2023/01/25 11:16:57;;;;;;;4.78;4.32;;;;;;;4.19;56.05;95844.44;5064357;28;20048;-76
2023/01/25 11:19:26;;;;;;;6.50;5.30;;;;;;;4.30;55.98;95836.34;5065997;28;20029;-77
2023/01/25 11:21:52;;;;;;;6.03;4.95;;;;;;;4.35;55.49;95834.09;5065447;28;20044;-78
2023/01/25 11:24:18;;;;;;;6.53;4.40;;;;;;;4.25;55.24;95835.56;5066195;28;20113;-76
2023/01/25 11:26:45;;;;;;;7.63;5.07;;;;;;;4.29;55.83;95827.41;5065206;28;20170;-78
2023/01/25 11:29:21;;;;;;;5.55;3.47;;;;;;;4.23;54.95;95831.63;5065750;28;20034;-77
2023/01/25 11:31:49;;;;;;;6.70;4.10;;;;;;;4.18;54.89;95845.56;5065568;28;20037;-78
2023/01/25 11:34:19;;;;;;;7.78;4.40;;;;;;;4.12;55.64;95825.31;5063493;28;20082;-77
2023/01/25 11:37:10;;;;;;;6.43;4.55;;;;;;;4.17;56.42;95823.03;5064573;28;20033;-77
2023/01/25 11:39:47;;;;;;;8.48;5.40;;;;;;;4.33;56.01;95824.75;5063343;28;20074;-77
2023/01/25 11:42:26;;;;;;;8.13;4.85;;;;;;;4.42;55.71;95815.13;5065412;28;20029;-78